sensor_id;sensor_type;location;lat;lon;timestamp;P1;durP1;ratioP1;P2;durP2;ratioP2
16199;SDS011;8207;52.494;4.654;2023-06-24T00:01:36;5.28;;;4.00;;
16199;SDS011;8207;52.494;4.654;2023-06-24T00:04:06;5.53;;;4.25;;
16199;SDS011;8207;52.494;4.654;2023-06-24T00:06:33;4.50;;;4.10;;
16199;SDS011;8207;52.494;4.654;2023-06-24T00:09:02;4.80;;;3.85;;
16199;SDS011;8207;52.494;4.654;2023-06-24T00:11:29;3.95;;;3.53;;
16199;SDS011;8207;52.494;4.654;2023-06-24T00:13:56;4.13;;;3.50;;
16199;SDS011;8207;52.494;4.654;2023-06-24T00:16:24;3.80;;;3.50;;
16199;SDS011;8207;52.494;4.654;2023-06-24T00:18:53;4.30;;;3.90;;
16199;SDS011;8207;52.494;4.654;2023-06-24T00:21:23;3.90;;;3.60;;
16199;SDS011;8207;52.494;4.654;2023-06-24T00:23:54;3.78;;;3.40;;
16199;SDS011;8207;52.494;4.654;2023-06-24T00:26:22;4.28;;;3.45;;
16199;SDS011;8207;52.494;4.654;2023-06-24T00:28:49;3.67;;;3.33;;
16199;SDS011;8207;52.494;4.654;2023-06-24T00:31:16;3.88;;;3.45;;
16199;SDS011;8207;52.494;4.654;2023-06-24T00:33:45;4.10;;;3.70;;
16199;SDS011;8207;52.494;4.654;2023-06-24T00:36:12;4.75;;;3.75;;
16199;SDS011;8207;52.494;4.654;2023-06-24T00:38:39;4.45;;;4.05;;
16199;SDS011;8207;52.494;4.654;2023-06-24T00:41:06;5.28;;;3.78;;
16199;SDS011;8207;52.494;4.654;2023-06-24T00:43:34;4.25;;;3.83;;
16199;SDS011;8207;52.494;4.654;2023-06-24T00:46:01;4.28;;;3.55;;
16199;SDS011;8207;52.494;4.654;2023-06-24T00:48:28;4.65;;;3.28;;
16199;SDS011;8207;52.494;4.654;2023-06-24T00:50:58;3.72;;;3.35;;
16199;SDS011;8207;52.494;4.654;2023-06-24T00:53:25;4.57;;;2.88;;
16199;SDS011;8207;52.494;4.654;2023-06-24T00:55:52;4.00;;;3.33;;
16199;SDS011;8207;52.494;4.654;2023-06-24T00:58:21;3.70;;;3.35;;
16199;SDS011;8207;52.494;4.654;2023-06-24T01:00:49;3.55;;;3.25;;
16199;SDS011;8207;52.494;4.654;2023-06-24T01:03:22;9.32;;;3.13;;
16199;SDS011;8207;52.494;4.654;2023-06-24T01:05:50;4.80;;;3.15;;
16199;SDS011;8207;52.494;4.654;2023-06-24T01:08:20;4.40;;;3.40;;
16199;SDS011;8207;52.494;4.654;2023-06-24T01:10:47;3.22;;;3.03;;
16199;SDS011;8207;52.494;4.654;2023-06-24T01:13:15;3.95;;;3.58;;
16199;SDS011;8207;52.494;4.654;2023-06-24T01:15:42;4.35;;;3.40;;
16199;SDS011;8207;52.494;4.654;2023-06-24T01:18:10;3.35;;;3.05;;
16199;SDS011;8207;52.494;4.654;2023-06-24T01:20:44;3.80;;;3.50;;
16199;SDS011;8207;52.494;4.654;2023-06-24T01:23:28;3.58;;;3.28;;
16199;SDS011;8207;52.494;4.654;2023-06-24T01:26:32;3.95;;;3.30;;
16199;SDS011;8207;52.494;4.654;2023-06-24T01:29:22;4.50;;;3.75;;
16199;SDS011;8207;52.494;4.654;2023-06-24T01:32:11;3.60;;;3.30;;
16199;SDS011;8207;52.494;4.654;2023-06-24T01:34:48;4.15;;;3.35;;
16199;SDS011;8207;52.494;4.654;2023-06-24T01:37:21;5.05;;;3.75;;
16199;SDS011;8207;52.494;4.654;2023-06-24T01:39:56;5.25;;;3.78;;
16199;SDS011;8207;52.494;4.654;2023-06-24T01:42:34;5.28;;;4.07;;
16199;SDS011;8207;52.494;4.654;2023-06-24T01:45:04;4.10;;;3.70;;
16199;SDS011;8207;52.494;4.654;2023-06-24T01:47:36;4.05;;;3.65;;
16199;SDS011;8207;52.494;4.654;2023-06-24T01:50:07;3.83;;;3.47;;
16199;SDS011;8207;52.494;4.654;2023-06-24T01:52:36;6.07;;;3.63;;
16199;SDS011;8207;52.494;4.654;2023-06-24T01:55:08;3.75;;;3.38;;
16199;SDS011;8207;52.494;4.654;2023-06-24T01:57:37;4.22;;;3.55;;
16199;SDS011;8207;52.494;4.654;2023-06-24T02:00:07;5.18;;;4.13;;
16199;SDS011;8207;52.494;4.654;2023-06-24T02:02:37;5.63;;;3.72;;
16199;SDS011;8207;52.494;4.654;2023-06-24T02:05:05;4.75;;;3.83;;
16199;SDS011;8207;52.494;4.654;2023-06-24T02:07:35;5.40;;;3.70;;
16199;SDS011;8207;52.494;4.654;2023-06-24T02:10:04;3.90;;;3.50;;
16199;SDS011;8207;52.494;4.654;2023-06-24T02:12:32;3.60;;;2.97;;
16199;SDS011;8207;52.494;4.654;2023-06-24T02:14:59;5.18;;;3.50;;
16199;SDS011;8207;52.494;4.654;2023-06-24T02:17:32;3.58;;;3.10;;
16199;SDS011;8207;52.494;4.654;2023-06-24T02:20:00;3.90;;;3.17;;
16199;SDS011;8207;52.494;4.654;2023-06-24T02:22:30;5.30;;;3.60;;
16199;SDS011;8207;52.494;4.654;2023-06-24T02:24:58;3.97;;;3.53;;
16199;SDS011;8207;52.494;4.654;2023-06-24T02:27:26;4.57;;;3.30;;
16199;SDS011;8207;52.494;4.654;2023-06-24T02:29:53;4.13;;;3.70;;
16199;SDS011;8207;52.494;4.654;2023-06-24T02:32:21;4.38;;;3.75;;
16199;SDS011;8207;52.494;4.654;2023-06-24T02:34:48;3.92;;;3.25;;
16199;SDS011;8207;52.494;4.654;2023-06-24T02:37:17;3.85;;;3.45;;
16199;SDS011;8207;52.494;4.654;2023-06-24T02:39:43;3.60;;;3.08;;
16199;SDS011;8207;52.494;4.654;2023-06-24T02:42:11;3.85;;;3.25;;
16199;SDS011;8207;52.494;4.654;2023-06-24T02:44:38;7.13;;;3.85;;
16199;SDS011;8207;52.494;4.654;2023-06-24T02:47:06;4.28;;;3.10;;
16199;SDS011;8207;52.494;4.654;2023-06-24T02:49:36;3.50;;;3.20;;
16199;SDS011;8207;52.494;4.654;2023-06-24T02:52:05;3.75;;;3.45;;
16199;SDS011;8207;52.494;4.654;2023-06-24T02:54:34;3.67;;;3.17;;
16199;SDS011;8207;52.494;4.654;2023-06-24T02:57:04;3.60;;;3.05;;
16199;SDS011;8207;52.494;4.654;2023-06-24T02:59:32;5.28;;;3.90;;
16199;SDS011;8207;52.494;4.654;2023-06-24T03:02:00;5.18;;;3.65;;
16199;SDS011;8207;52.494;4.654;2023-06-24T03:04:28;3.53;;;3.10;;
16199;SDS011;8207;52.494;4.654;2023-06-24T03:06:56;6.75;;;4.00;;
16199;SDS011;8207;52.494;4.654;2023-06-24T03:09:24;4.80;;;3.17;;
16199;SDS011;8207;52.494;4.654;2023-06-24T03:11:54;5.95;;;3.63;;
16199;SDS011;8207;52.494;4.654;2023-06-24T03:14:21;5.22;;;3.38;;
16199;SDS011;8207;52.494;4.654;2023-06-24T03:16:48;4.55;;;3.38;;
16199;SDS011;8207;52.494;4.654;2023-06-24T03:19:15;4.57;;;3.60;;
16199;SDS011;8207;52.494;4.654;2023-06-24T03:21:42;5.10;;;3.28;;
16199;SDS011;8207;52.494;4.654;2023-06-24T03:24:09;4.07;;;3.35;;
16199;SDS011;8207;52.494;4.654;2023-06-24T03:26:37;4.53;;;3.78;;
16199;SDS011;8207;52.494;4.654;2023-06-24T03:29:06;4.03;;;3.40;;
16199;SDS011;8207;52.494;4.654;2023-06-24T03:31:33;4.57;;;3.65;;
16199;SDS011;8207;52.494;4.654;2023-06-24T03:34:00;5.00;;;3.50;;
16199;SDS011;8207;52.494;4.654;2023-06-24T03:36:27;4.07;;;3.58;;
16199;SDS011;8207;52.494;4.654;2023-06-24T03:38:54;5.03;;;3.53;;
16199;SDS011;8207;52.494;4.654;2023-06-24T03:41:22;3.60;;;3.30;;
16199;SDS011;8207;52.494;4.654;2023-06-24T03:43:51;5.13;;;3.03;;
16199;SDS011;8207;52.494;4.654;2023-06-24T03:46:19;3.55;;;3.15;;
16199;SDS011;8207;52.494;4.654;2023-06-24T03:48:46;5.32;;;3.50;;
16199;SDS011;8207;52.494;4.654;2023-06-24T03:51:13;4.20;;;3.30;;
16199;SDS011;8207;52.494;4.654;2023-06-24T03:53:40;5.15;;;3.00;;
16199;SDS011;8207;52.494;4.654;2023-06-24T03:56:07;4.05;;;3.47;;
16199;SDS011;8207;52.494;4.654;2023-06-24T03:58:34;4.50;;;4.03;;
16199;SDS011;8207;52.494;4.654;2023-06-24T04:01:01;7.03;;;3.15;;
16199;SDS011;8207;52.494;4.654;2023-06-24T04:03:31;3.80;;;3.30;;
16199;SDS011;8207;52.494;4.654;2023-06-24T04:05:58;6.63;;;3.50;;
16199;SDS011;8207;52.494;4.654;2023-06-24T04:08:26;4.93;;;3.55;;
16199;SDS011;8207;52.494;4.654;2023-06-24T04:10:54;4.60;;;3.22;;
16199;SDS011;8207;52.494;4.654;2023-06-24T04:13:21;4.20;;;3.58;;
16199;SDS011;8207;52.494;4.654;2023-06-24T04:15:48;4.20;;;3.80;;
16199;SDS011;8207;52.494;4.654;2023-06-24T04:18:15;6.00;;;3.50;;
16199;SDS011;8207;52.494;4.654;2023-06-24T04:20:43;3.90;;;3.47;;
16199;SDS011;8207;52.494;4.654;2023-06-24T04:23:11;4.30;;;3.70;;
16199;SDS011;8207;52.494;4.654;2023-06-24T04:25:39;3.97;;;3.58;;
16199;SDS011;8207;52.494;4.654;2023-06-24T04:28:07;5.90;;;3.85;;
16199;SDS011;8207;52.494;4.654;2023-06-24T04:30:34;4.25;;;3.78;;
16199;SDS011;8207;52.494;4.654;2023-06-24T04:33:04;4.65;;;3.30;;
16199;SDS011;8207;52.494;4.654;2023-06-24T04:35:31;6.43;;;4.10;;
16199;SDS011;8207;52.494;4.654;2023-06-24T04:38:00;5.93;;;3.72;;
16199;SDS011;8207;52.494;4.654;2023-06-24T04:40:27;5.88;;;3.63;;
16199;SDS011;8207;52.494;4.654;2023-06-24T04:42:54;4.20;;;3.47;;
16199;SDS011;8207;52.494;4.654;2023-06-24T04:45:21;5.22;;;3.53;;
16199;SDS011;8207;52.494;4.654;2023-06-24T04:47:48;4.03;;;3.63;;
16199;SDS011;8207;52.494;4.654;2023-06-24T04:50:15;4.03;;;3.55;;
16199;SDS011;8207;52.494;4.654;2023-06-24T04:52:42;4.18;;;3.78;;
16199;SDS011;8207;52.494;4.654;2023-06-24T04:55:11;6.30;;;4.03;;
16199;SDS011;8207;52.494;4.654;2023-06-24T04:57:38;5.03;;;3.50;;
16199;SDS011;8207;52.494;4.654;2023-06-24T05:00:08;5.20;;;3.58;;
16199;SDS011;8207;52.494;4.654;2023-06-24T05:02:36;6.35;;;3.60;;
16199;SDS011;8207;52.494;4.654;2023-06-24T05:05:03;4.65;;;3.75;;
16199;SDS011;8207;52.494;4.654;2023-06-24T05:07:30;5.80;;;5.18;;
16199;SDS011;8207;52.494;4.654;2023-06-24T05:09:57;5.70;;;3.85;;
16199;SDS011;8207;52.494;4.654;2023-06-24T05:12:25;6.18;;;3.90;;
16199;SDS011;8207;52.494;4.654;2023-06-24T05:14:52;6.72;;;4.38;;
16199;SDS011;8207;52.494;4.654;2023-06-24T05:17:19;4.70;;;3.83;;
16199;SDS011;8207;52.494;4.654;2023-06-24T05:19:46;4.93;;;3.83;;
16199;SDS011;8207;52.494;4.654;2023-06-24T05:22:14;5.90;;;3.95;;
16199;SDS011;8207;52.494;4.654;2023-06-24T05:24:41;5.45;;;4.35;;
16199;SDS011;8207;52.494;4.654;2023-06-24T05:27:08;6.07;;;4.10;;
16199;SDS011;8207;52.494;4.654;2023-06-24T05:29:37;6.72;;;3.72;;
16199;SDS011;8207;52.494;4.654;2023-06-24T05:32:04;6.88;;;4.50;;
16199;SDS011;8207;52.494;4.654;2023-06-24T05:34:32;6.05;;;3.92;;
16199;SDS011;8207;52.494;4.654;2023-06-24T05:37:00;5.97;;;4.30;;
16199;SDS011;8207;52.494;4.654;2023-06-24T05:39:27;7.03;;;4.03;;
16199;SDS011;8207;52.494;4.654;2023-06-24T05:41:54;4.90;;;4.00;;
16199;SDS011;8207;52.494;4.654;2023-06-24T05:44:21;4.72;;;3.45;;
16199;SDS011;8207;52.494;4.654;2023-06-24T05:46:49;5.93;;;3.55;;
16199;SDS011;8207;52.494;4.654;2023-06-24T05:49:16;5.00;;;3.50;;
16199;SDS011;8207;52.494;4.654;2023-06-24T05:51:43;6.55;;;3.50;;
16199;SDS011;8207;52.494;4.654;2023-06-24T05:54:10;5.25;;;3.95;;
16199;SDS011;8207;52.494;4.654;2023-06-24T05:56:37;5.95;;;3.50;;
16199;SDS011;8207;52.494;4.654;2023-06-24T05:59:04;6.40;;;3.78;;
16199;SDS011;8207;52.494;4.654;2023-06-24T06:01:31;5.75;;;3.90;;
16199;SDS011;8207;52.494;4.654;2023-06-24T06:04:00;6.32;;;4.25;;
16199;SDS011;8207;52.494;4.654;2023-06-24T06:06:27;6.22;;;4.38;;
16199;SDS011;8207;52.494;4.654;2023-06-24T06:08:56;4.28;;;3.60;;
16199;SDS011;8207;52.494;4.654;2023-06-24T06:11:23;7.75;;;4.63;;
16199;SDS011;8207;52.494;4.654;2023-06-24T06:13:51;8.45;;;4.35;;
16199;SDS011;8207;52.494;4.654;2023-06-24T06:16:18;6.03;;;4.25;;
16199;SDS011;8207;52.494;4.654;2023-06-24T06:18:45;8.48;;;4.18;;
16199;SDS011;8207;52.494;4.654;2023-06-24T06:21:14;6.03;;;4.07;;
16199;SDS011;8207;52.494;4.654;2023-06-24T06:23:41;8.60;;;4.60;;
16199;SDS011;8207;52.494;4.654;2023-06-24T06:26:08;7.70;;;4.18;;
16199;SDS011;8207;52.494;4.654;2023-06-24T06:28:35;5.80;;;4.20;;
16199;SDS011;8207;52.494;4.654;2023-06-24T06:31:02;7.68;;;4.45;;
16199;SDS011;8207;52.494;4.654;2023-06-24T06:33:29;10.23;;;5.40;;
16199;SDS011;8207;52.494;4.654;2023-06-24T06:35:56;8.13;;;4.53;;
16199;SDS011;8207;52.494;4.654;2023-06-24T06:38:25;5.70;;;4.47;;
16199;SDS011;8207;52.494;4.654;2023-06-24T06:40:53;5.40;;;3.95;;
16199;SDS011;8207;52.494;4.654;2023-06-24T06:43:20;6.07;;;4.18;;
16199;SDS011;8207;52.494;4.654;2023-06-24T06:45:47;6.85;;;4.18;;
16199;SDS011;8207;52.494;4.654;2023-06-24T06:48:14;7.05;;;3.90;;
16199;SDS011;8207;52.494;4.654;2023-06-24T06:50:40;5.78;;;4.20;;
16199;SDS011;8207;52.494;4.654;2023-06-24T07:00:18;6.53;;;4.10;;
16199;SDS011;8207;52.494;4.654;2023-06-24T07:02:45;8.02;;;4.22;;
16199;SDS011;8207;52.494;4.654;2023-06-24T07:05:12;7.32;;;4.45;;
16199;SDS011;8207;52.494;4.654;2023-06-24T07:07:39;8.23;;;5.00;;
16199;SDS011;8207;52.494;4.654;2023-06-24T07:10:11;6.28;;;4.20;;
16199;SDS011;8207;52.494;4.654;2023-06-24T07:12:38;7.22;;;3.90;;
16199;SDS011;8207;52.494;4.654;2023-06-24T07:15:06;6.90;;;3.50;;
16199;SDS011;8207;52.494;4.654;2023-06-24T07:17:34;5.63;;;3.75;;
16199;SDS011;8207;52.494;4.654;2023-06-24T07:20:01;5.63;;;3.83;;
16199;SDS011;8207;52.494;4.654;2023-06-24T07:22:29;7.13;;;3.45;;
16199;SDS011;8207;52.494;4.654;2023-06-24T07:24:56;6.95;;;4.05;;
16199;SDS011;8207;52.494;4.654;2023-06-24T07:27:23;6.95;;;4.13;;
16199;SDS011;8207;52.494;4.654;2023-06-24T07:29:50;7.63;;;4.00;;
16199;SDS011;8207;52.494;4.654;2023-06-24T07:32:17;7.78;;;3.88;;
16199;SDS011;8207;52.494;4.654;2023-06-24T07:34:45;6.63;;;4.07;;
16199;SDS011;8207;52.494;4.654;2023-06-24T07:37:12;6.60;;;3.58;;
16199;SDS011;8207;52.494;4.654;2023-06-24T07:39:39;6.75;;;3.70;;
16199;SDS011;8207;52.494;4.654;2023-06-24T07:42:06;5.00;;;3.70;;
16199;SDS011;8207;52.494;4.654;2023-06-24T07:44:33;6.72;;;4.18;;
16199;SDS011;8207;52.494;4.654;2023-06-24T07:47:01;4.82;;;3.58;;
16199;SDS011;8207;52.494;4.654;2023-06-24T07:49:29;5.30;;;3.60;;
16199;SDS011;8207;52.494;4.654;2023-06-24T07:51:57;6.95;;;3.33;;
16199;SDS011;8207;52.494;4.654;2023-06-24T07:54:24;6.22;;;3.53;;
16199;SDS011;8207;52.494;4.654;2023-06-24T07:56:51;5.47;;;3.50;;
16199;SDS011;8207;52.494;4.654;2023-06-24T07:59:18;7.55;;;3.95;;
16199;SDS011;8207;52.494;4.654;2023-06-24T08:01:45;8.10;;;3.92;;
16199;SDS011;8207;52.494;4.654;2023-06-24T08:04:13;7.72;;;4.10;;
16199;SDS011;8207;52.494;4.654;2023-06-24T08:06:41;4.85;;;3.58;;
16199;SDS011;8207;52.494;4.654;2023-06-24T08:09:09;6.35;;;3.50;;
16199;SDS011;8207;52.494;4.654;2023-06-24T08:11:36;5.93;;;3.63;;
16199;SDS011;8207;52.494;4.654;2023-06-24T08:14:03;5.93;;;3.60;;
16199;SDS011;8207;52.494;4.654;2023-06-24T08:16:30;8.35;;;3.92;;
16199;SDS011;8207;52.494;4.654;2023-06-24T08:18:57;7.75;;;4.10;;
16199;SDS011;8207;52.494;4.654;2023-06-24T08:21:24;7.25;;;3.72;;
16199;SDS011;8207;52.494;4.654;2023-06-24T08:23:51;7.05;;;3.72;;
16199;SDS011;8207;52.494;4.654;2023-06-24T08:26:20;5.95;;;3.83;;
16199;SDS011;8207;52.494;4.654;2023-06-24T08:28:47;4.63;;;3.22;;
16199;SDS011;8207;52.494;4.654;2023-06-24T08:31:14;4.50;;;3.50;;
16199;SDS011;8207;52.494;4.654;2023-06-24T08:33:43;7.05;;;3.85;;
16199;SDS011;8207;52.494;4.654;2023-06-24T08:36:10;9.10;;;4.97;;
16199;SDS011;8207;52.494;4.654;2023-06-24T08:38:38;5.15;;;4.00;;
16199;SDS011;8207;52.494;4.654;2023-06-24T08:41:05;7.28;;;4.47;;
16199;SDS011;8207;52.494;4.654;2023-06-24T08:43:34;7.40;;;4.88;;
16199;SDS011;8207;52.494;4.654;2023-06-24T08:46:02;8.68;;;4.80;;
16199;SDS011;8207;52.494;4.654;2023-06-24T08:48:31;7.43;;;4.18;;
16199;SDS011;8207;52.494;4.654;2023-06-24T08:51:05;10.00;;;4.82;;
16199;SDS011;8207;52.494;4.654;2023-06-24T08:53:34;6.30;;;4.35;;
16199;SDS011;8207;52.494;4.654;2023-06-24T08:56:04;11.02;;;4.90;;
16199;SDS011;8207;52.494;4.654;2023-06-24T08:58:31;7.28;;;4.15;;
16199;SDS011;8207;52.494;4.654;2023-06-24T09:00:59;8.75;;;4.20;;
16199;SDS011;8207;52.494;4.654;2023-06-24T09:03:27;10.32;;;5.00;;
16199;SDS011;8207;52.494;4.654;2023-06-24T09:05:54;7.85;;;4.90;;
16199;SDS011;8207;52.494;4.654;2023-06-24T09:08:21;5.25;;;3.65;;
16199;SDS011;8207;52.494;4.654;2023-06-24T09:10:52;9.45;;;5.50;;
16199;SDS011;8207;52.494;4.654;2023-06-24T09:13:21;9.27;;;4.95;;
16199;SDS011;8207;52.494;4.654;2023-06-24T09:15:53;9.10;;;4.60;;
16199;SDS011;8207;52.494;4.654;2023-06-24T09:18:31;6.25;;;4.05;;
16199;SDS011;8207;52.494;4.654;2023-06-24T09:20:58;6.68;;;4.25;;
16199;SDS011;8207;52.494;4.654;2023-06-24T09:23:27;6.93;;;3.92;;
16199;SDS011;8207;52.494;4.654;2023-06-24T09:25:55;12.35;;;5.30;;
16199;SDS011;8207;52.494;4.654;2023-06-24T09:28:25;5.90;;;4.07;;
16199;SDS011;8207;52.494;4.654;2023-06-24T09:31:03;5.18;;;3.90;;
16199;SDS011;8207;52.494;4.654;2023-06-24T09:33:35;8.95;;;4.85;;
16199;SDS011;8207;52.494;4.654;2023-06-24T09:36:02;6.97;;;4.10;;
16199;SDS011;8207;52.494;4.654;2023-06-24T09:38:34;6.97;;;4.22;;
16199;SDS011;8207;52.494;4.654;2023-06-24T09:41:02;5.70;;;3.90;;
16199;SDS011;8207;52.494;4.654;2023-06-24T09:43:30;6.72;;;5.00;;
16199;SDS011;8207;52.494;4.654;2023-06-24T09:45:57;7.90;;;4.80;;
16199;SDS011;8207;52.494;4.654;2023-06-24T09:48:24;6.97;;;4.78;;
16199;SDS011;8207;52.494;4.654;2023-06-24T09:50:53;6.90;;;4.60;;
16199;SDS011;8207;52.494;4.654;2023-06-24T09:53:22;8.63;;;4.68;;
16199;SDS011;8207;52.494;4.654;2023-06-24T09:55:49;8.15;;;5.10;;
16199;SDS011;8207;52.494;4.654;2023-06-24T09:58:18;8.65;;;5.18;;
16199;SDS011;8207;52.494;4.654;2023-06-24T10:00:47;11.18;;;5.47;;
16199;SDS011;8207;52.494;4.654;2023-06-24T10:03:15;8.93;;;5.07;;
16199;SDS011;8207;52.494;4.654;2023-06-24T10:05:43;10.15;;;5.05;;
16199;SDS011;8207;52.494;4.654;2023-06-24T10:08:13;8.52;;;4.80;;
16199;SDS011;8207;52.494;4.654;2023-06-24T10:10:40;8.68;;;5.50;;
16199;SDS011;8207;52.494;4.654;2023-06-24T10:13:07;7.05;;;4.78;;
16199;SDS011;8207;52.494;4.654;2023-06-24T10:15:35;12.27;;;5.70;;
16199;SDS011;8207;52.494;4.654;2023-06-24T10:18:02;9.07;;;5.32;;
16199;SDS011;8207;52.494;4.654;2023-06-24T10:20:29;8.73;;;5.30;;
16199;SDS011;8207;52.494;4.654;2023-06-24T10:23:05;9.23;;;5.20;;
16199;SDS011;8207;52.494;4.654;2023-06-24T10:25:36;8.60;;;4.15;;
16199;SDS011;8207;52.494;4.654;2023-06-24T10:28:03;7.32;;;4.50;;
16199;SDS011;8207;52.494;4.654;2023-06-24T10:30:30;6.72;;;4.47;;
16199;SDS011;8207;52.494;4.654;2023-06-24T10:32:58;8.93;;;4.60;;
16199;SDS011;8207;52.494;4.654;2023-06-24T10:35:25;8.68;;;4.40;;
16199;SDS011;8207;52.494;4.654;2023-06-24T10:37:55;5.20;;;4.28;;
16199;SDS011;8207;52.494;4.654;2023-06-24T10:40:37;8.20;;;4.85;;
16199;SDS011;8207;52.494;4.654;2023-06-24T10:43:24;7.65;;;4.70;;
16199;SDS011;8207;52.494;4.654;2023-06-24T10:45:53;8.48;;;4.85;;
16199;SDS011;8207;52.494;4.654;2023-06-24T10:48:21;8.82;;;4.68;;
16199;SDS011;8207;52.494;4.654;2023-06-24T10:50:48;6.25;;;4.72;;
16199;SDS011;8207;52.494;4.654;2023-06-24T10:53:16;8.77;;;5.00;;
16199;SDS011;8207;52.494;4.654;2023-06-24T10:55:46;8.30;;;5.03;;
16199;SDS011;8207;52.494;4.654;2023-06-24T10:58:13;6.03;;;4.22;;
16199;SDS011;8207;52.494;4.654;2023-06-24T11:00:40;8.43;;;4.35;;
16199;SDS011;8207;52.494;4.654;2023-06-24T11:03:09;7.47;;;5.40;;
16199;SDS011;8207;52.494;4.654;2023-06-24T11:05:40;10.48;;;4.72;;
16199;SDS011;8207;52.494;4.654;2023-06-24T11:08:07;5.60;;;3.88;;
16199;SDS011;8207;52.494;4.654;2023-06-24T11:10:41;8.98;;;5.22;;
16199;SDS011;8207;52.494;4.654;2023-06-24T11:13:11;7.15;;;5.32;;
16199;SDS011;8207;52.494;4.654;2023-06-24T11:15:38;6.82;;;4.53;;
16199;SDS011;8207;52.494;4.654;2023-06-24T11:18:07;5.93;;;3.97;;
16199;SDS011;8207;52.494;4.654;2023-06-24T11:20:36;7.50;;;4.50;;
16199;SDS011;8207;52.494;4.654;2023-06-24T11:23:06;6.60;;;4.10;;
16199;SDS011;8207;52.494;4.654;2023-06-24T11:25:38;9.77;;;4.57;;
16199;SDS011;8207;52.494;4.654;2023-06-24T11:28:13;6.43;;;4.30;;
16199;SDS011;8207;52.494;4.654;2023-06-24T11:30:41;4.97;;;4.25;;
16199;SDS011;8207;52.494;4.654;2023-06-24T11:33:08;4.90;;;3.95;;
16199;SDS011;8207;52.494;4.654;2023-06-24T11:35:35;5.78;;;4.50;;
16199;SDS011;8207;52.494;4.654;2023-06-24T11:38:02;7.15;;;4.30;;
16199;SDS011;8207;52.494;4.654;2023-06-24T11:40:30;5.03;;;4.00;;
16199;SDS011;8207;52.494;4.654;2023-06-24T11:43:00;5.63;;;4.35;;
16199;SDS011;8207;52.494;4.654;2023-06-24T11:45:29;9.30;;;4.70;;
16199;SDS011;8207;52.494;4.654;2023-06-24T11:48:02;6.20;;;4.25;;
16199;SDS011;8207;52.494;4.654;2023-06-24T11:50:33;4.65;;;4.10;;
16199;SDS011;8207;52.494;4.654;2023-06-24T11:53:03;6.45;;;4.53;;
16199;SDS011;8207;52.494;4.654;2023-06-24T11:55:30;6.25;;;4.80;;
16199;SDS011;8207;52.494;4.654;2023-06-24T11:57:58;5.38;;;4.57;;
16199;SDS011;8207;52.494;4.654;2023-06-24T12:00:27;7.15;;;5.10;;
16199;SDS011;8207;52.494;4.654;2023-06-24T12:02:57;6.75;;;4.38;;
16199;SDS011;8207;52.494;4.654;2023-06-24T12:05:26;6.63;;;4.85;;
16199;SDS011;8207;52.494;4.654;2023-06-24T12:07:54;8.35;;;5.32;;
16199;SDS011;8207;52.494;4.654;2023-06-24T12:10:23;5.45;;;4.47;;
16199;SDS011;8207;52.494;4.654;2023-06-24T12:12:50;8.75;;;6.60;;
16199;SDS011;8207;52.494;4.654;2023-06-24T12:15:17;6.88;;;5.47;;
16199;SDS011;8207;52.494;4.654;2023-06-24T12:17:45;5.55;;;4.95;;
16199;SDS011;8207;52.494;4.654;2023-06-24T12:20:13;10.13;;;6.10;;
16199;SDS011;8207;52.494;4.654;2023-06-24T12:22:40;8.55;;;5.95;;
16199;SDS011;8207;52.494;4.654;2023-06-24T12:25:08;8.82;;;6.20;;
16199;SDS011;8207;52.494;4.654;2023-06-24T12:27:36;10.63;;;7.50;;
16199;SDS011;8207;52.494;4.654;2023-06-24T12:30:04;9.38;;;7.80;;
16199;SDS011;8207;52.494;4.654;2023-06-24T12:32:31;10.32;;;7.93;;
16199;SDS011;8207;52.494;4.654;2023-06-24T12:35:00;13.15;;;8.52;;
16199;SDS011;8207;52.494;4.654;2023-06-24T12:37:28;10.00;;;6.13;;
16199;SDS011;8207;52.494;4.654;2023-06-24T12:39:56;9.93;;;5.13;;
16199;SDS011;8207;52.494;4.654;2023-06-24T12:42:23;7.82;;;4.90;;
16199;SDS011;8207;52.494;4.654;2023-06-24T12:44:50;7.18;;;4.68;;
16199;SDS011;8207;52.494;4.654;2023-06-24T12:47:17;6.05;;;4.40;;
16199;SDS011;8207;52.494;4.654;2023-06-24T12:49:44;5.95;;;4.78;;
16199;SDS011;8207;52.494;4.654;2023-06-24T12:52:13;6.60;;;4.80;;
16199;SDS011;8207;52.494;4.654;2023-06-24T12:54:40;8.02;;;4.80;;
16199;SDS011;8207;52.494;4.654;2023-06-24T12:57:07;6.22;;;4.72;;
16199;SDS011;8207;52.494;4.654;2023-06-24T12:59:34;4.93;;;4.00;;
16199;SDS011;8207;52.494;4.654;2023-06-24T13:02:01;6.18;;;5.13;;
16199;SDS011;8207;52.494;4.654;2023-06-24T13:04:28;9.52;;;5.22;;
16199;SDS011;8207;52.494;4.654;2023-06-24T13:06:55;6.28;;;3.92;;
16199;SDS011;8207;52.494;4.654;2023-06-24T13:09:23;7.63;;;5.60;;
16199;SDS011;8207;52.494;4.654;2023-06-24T13:11:50;6.05;;;4.68;;
16199;SDS011;8207;52.494;4.654;2023-06-24T13:14:17;5.90;;;4.90;;
16199;SDS011;8207;52.494;4.654;2023-06-24T13:16:44;9.15;;;5.03;;
16199;SDS011;8207;52.494;4.654;2023-06-24T13:19:11;8.07;;;5.07;;
16199;SDS011;8207;52.494;4.654;2023-06-24T13:21:38;7.90;;;5.05;;
16199;SDS011;8207;52.494;4.654;2023-06-24T13:24:07;7.78;;;4.72;;
16199;SDS011;8207;52.494;4.654;2023-06-24T13:26:35;12.05;;;6.13;;
16199;SDS011;8207;52.494;4.654;2023-06-24T13:29:02;7.53;;;5.78;;
16199;SDS011;8207;52.494;4.654;2023-06-24T13:31:29;6.28;;;4.90;;
16199;SDS011;8207;52.494;4.654;2023-06-24T13:33:56;7.05;;;5.43;;
16199;SDS011;8207;52.494;4.654;2023-06-24T13:36:30;4.80;;;4.05;;
16199;SDS011;8207;52.494;4.654;2023-06-24T13:39:00;8.30;;;4.70;;
16199;SDS011;8207;52.494;4.654;2023-06-24T13:41:27;7.00;;;5.20;;
16199;SDS011;8207;52.494;4.654;2023-06-24T13:43:58;9.65;;;5.63;;
16199;SDS011;8207;52.494;4.654;2023-06-24T13:46:26;9.20;;;5.38;;
16199;SDS011;8207;52.494;4.654;2023-06-24T13:48:53;6.28;;;5.20;;
16199;SDS011;8207;52.494;4.654;2023-06-24T13:51:21;7.68;;;5.55;;
16199;SDS011;8207;52.494;4.654;2023-06-24T13:53:49;8.20;;;5.50;;
16199;SDS011;8207;52.494;4.654;2023-06-24T13:56:17;7.90;;;6.13;;
16199;SDS011;8207;52.494;4.654;2023-06-24T13:58:45;10.35;;;6.22;;
16199;SDS011;8207;52.494;4.654;2023-06-24T14:01:14;7.53;;;5.78;;
16199;SDS011;8207;52.494;4.654;2023-06-24T14:03:41;8.30;;;6.50;;
16199;SDS011;8207;52.494;4.654;2023-06-24T14:06:10;7.60;;;5.85;;
16199;SDS011;8207;52.494;4.654;2023-06-24T14:08:37;9.60;;;5.93;;
16199;SDS011;8207;52.494;4.654;2023-06-24T14:11:04;8.65;;;5.43;;
16199;SDS011;8207;52.494;4.654;2023-06-24T14:13:31;7.65;;;5.32;;
16199;SDS011;8207;52.494;4.654;2023-06-24T14:15:58;7.40;;;4.78;;
16199;SDS011;8207;52.494;4.654;2023-06-24T14:18:27;6.95;;;5.45;;
16199;SDS011;8207;52.494;4.654;2023-06-24T14:20:56;7.95;;;6.05;;
16199;SDS011;8207;52.494;4.654;2023-06-24T14:23:24;7.78;;;4.90;;
16199;SDS011;8207;52.494;4.654;2023-06-24T14:25:51;7.93;;;5.70;;
16199;SDS011;8207;52.494;4.654;2023-06-24T14:28:18;10.63;;;5.93;;
16199;SDS011;8207;52.494;4.654;2023-06-24T14:30:45;6.10;;;5.50;;
16199;SDS011;8207;52.494;4.654;2023-06-24T14:33:13;8.65;;;5.50;;
16199;SDS011;8207;52.494;4.654;2023-06-24T14:35:41;7.68;;;5.45;;
16199;SDS011;8207;52.494;4.654;2023-06-24T14:38:08;6.45;;;5.07;;
16199;SDS011;8207;52.494;4.654;2023-06-24T14:40:35;5.82;;;4.85;;
16199;SDS011;8207;52.494;4.654;2023-06-24T14:43:03;8.23;;;6.00;;
16199;SDS011;8207;52.494;4.654;2023-06-24T14:45:30;8.73;;;6.68;;
16199;SDS011;8207;52.494;4.654;2023-06-24T14:47:57;5.38;;;4.70;;
16199;SDS011;8207;52.494;4.654;2023-06-24T14:50:24;6.55;;;5.40;;
16199;SDS011;8207;52.494;4.654;2023-06-24T14:52:52;7.35;;;4.75;;
16199;SDS011;8207;52.494;4.654;2023-06-24T14:55:19;6.32;;;5.63;;
16199;SDS011;8207;52.494;4.654;2023-06-24T14:57:46;6.05;;;5.15;;
16199;SDS011;8207;52.494;4.654;2023-06-24T15:00:13;7.75;;;4.88;;
16199;SDS011;8207;52.494;4.654;2023-06-24T15:02:40;6.85;;;5.18;;
16199;SDS011;8207;52.494;4.654;2023-06-24T15:05:08;7.68;;;4.80;;
16199;SDS011;8207;52.494;4.654;2023-06-24T15:07:35;10.43;;;5.60;;
16199;SDS011;8207;52.494;4.654;2023-06-24T15:10:05;5.63;;;4.85;;
16199;SDS011;8207;52.494;4.654;2023-06-24T15:12:33;5.60;;;4.75;;
16199;SDS011;8207;52.494;4.654;2023-06-24T15:15:00;6.72;;;4.28;;